Time;durP1;ratioP1;P1;durP2;ratioP2;P2;SDS_P1;SDS_P2;PMS_P1;PMS_P2;Temp;Humidity;BMP_temperature;BMP_pressure;BME280_temperature;BME280_humidity;BME280_pressure;Samples;Min_cycle;Max_cycle;Signal;HPM_P1;HPM_P2
2022/09/03 00:02:05;;;;;;;10.82;6.45;;;;;;;21.20;84.39;99425.94;5060462;28;20089;-83
2022/09/03 00:04:50;;;;;;;11.52;7.07;;;;;;;21.34;84.56;99467.13;5073310;28;20109;-83
2022/09/03 00:07:22;;;;;;;8.27;5.83;;;;;;;21.27;84.89;99464.84;5067982;28;20499;-83
2022/09/03 00:09:54;;;;;;;11.02;7.20;;;;;;;21.17;84.72;99441.38;5053525;28;20631;-84
2022/09/03 00:12:35;;;;;;;12.23;7.35;;;;;;;21.09;84.29;99423.09;5048682;28;20033;-82
2022/09/03 00:15:09;;;;;;;9.10;6.25;;;;;;;21.13;85.11;99440.69;5064772;28;20060;-84
2022/09/03 00:17:48;;;;;;;12.23;7.70;;;;;;;21.17;85.19;99438.69;5068589;28;20033;-84
2022/09/03 00:20:19;;;;;;;10.15;6.30;;;;;;;21.13;85.28;99440.69;5057535;28;20051;-83
2022/09/03 00:22:52;;;;;;;8.43;5.45;;;;;;;21.34;85.23;99462.63;5061481;28;20040;-83
2022/09/03 00:25:29;;;;;;;11.98;7.68;;;;;;;21.36;84.70;99467.88;5066281;28;20036;-84
2022/09/03 00:27:57;;;;;;;10.82;7.45;;;;;;;21.19;85.72;99455.53;5068333;28;20046;-83
2022/09/03 00:30:23;;;;;;;16.60;6.85;;;;;;;21.24;85.87;99470.41;5056545;28;20071;-84
2022/09/03 00:33:09;;;;;;;9.73;6.38;;;;;;;21.34;85.53;99483.22;5048199;28;20044;-84
2022/09/03 00:35:43;;;;;;;10.95;5.75;;;;;;;21.37;84.89;99480.34;5048077;28;20032;-83
2022/09/03 00:38:09;;;;;;;8.32;6.20;;;;;;;21.16;84.33;99478.03;5055870;28;20044;-84
2022/09/03 00:41:09;;;;;;;8.27;5.80;;;;;;;21.00;85.60;99485.31;5054961;28;20033;-83
2022/09/03 00:44:12;;;;;;;12.73;5.38;;;;;;;20.79;86.00;99472.28;5048036;28;20487;-84
2022/09/03 00:47:17;;;;;;;6.90;5.60;;;;;;;21.00;85.29;99472.78;4981806;28;20044;-84
2022/09/03 00:49:48;;;;;;;8.93;4.45;;;;;;;20.98;84.95;99469.34;5024068;28;20037;-84
2022/09/03 00:52:35;;;;;;;9.57;6.03;;;;;;;20.74;85.14;99477.94;5008867;28;20043;-84
2022/09/03 00:55:24;;;;;;;9.48;5.88;;;;;;;20.66;85.74;99455.22;5052572;28;20059;-84
2022/09/03 00:58:10;;;;;;;11.50;5.25;;;;;;;20.67;85.79;99441.72;5047759;28;20043;-85
2022/09/03 01:00:38;;;;;;;8.95;5.68;;;;;;;20.56;86.27;99439.66;5061476;28;20565;-84
2022/09/03 01:03:39;;;;;;;6.18;4.35;;;;;;;20.73;85.91;99461.94;5067398;28;20042;-84
2022/09/03 01:06:17;;;;;;;8.23;5.30;;;;;;;20.39;87.72;99466.63;5057508;28;20044;-84
2022/09/03 01:09:02;;;;;;;10.57;6.70;;;;;;;20.64;86.27;99474.03;5046488;28;20465;-84
2022/09/03 01:12:05;;;;;;;9.20;5.95;;;;;;;20.63;86.50;99468.78;5047270;28;20586;-83
2022/09/03 01:14:41;;;;;;;9.75;5.90;;;;;;;20.74;86.27;99469.00;5045902;28;20601;-84
2022/09/03 01:17:25;;;;;;;9.05;6.10;;;;;;;20.73;86.21;99469.97;5047713;28;20494;-83
2022/09/03 01:20:06;;;;;;;8.13;4.78;;;;;;;20.85;85.60;99479.97;5046873;28;20098;-83
2022/09/03 01:22:56;;;;;;;10.35;4.85;;;;;;;20.91;84.77;99474.22;5047400;28;20029;-84
2022/09/03 01:25:37;;;;;;;9.88;5.45;;;;;;;20.74;86.00;99482.41;5049967;28;20029;-84
2022/09/03 01:28:12;;;;;;;9.38;5.47;;;;;;;20.70;86.07;99462.13;5058321;28;20036;-84
2022/09/03 01:30:46;;;;;;;13.15;7.05;;;;;;;20.70;85.09;99443.38;5060876;28;20093;-83
2022/09/03 01:33:43;;;;;;;8.98;5.88;;;;;;;20.76;84.37;99445.69;5067250;28;20037;-84
2022/09/03 01:36:27;;;;;;;17.15;6.63;;;;;;;20.99;84.24;99489.84;5061160;28;20044;-82
2022/09/03 01:39:15;;;;;;;8.43;5.53;;;;;;;20.78;84.65;99454.47;5060227;28;20044;-83
2022/09/03 01:42:17;;;;;;;7.10;4.63;;;;;;;20.79;85.05;99482.13;5067560;28;20043;-82
2022/09/03 01:44:49;;;;;;;8.45;5.90;;;;;;;20.84;85.25;99480.06;5066990;28;20115;-82
2022/09/03 01:47:30;;;;;;;8.63;5.25;;;;;;;20.68;85.02;99454.19;5066688;28;20426;-82
2022/09/03 01:50:04;;;;;;;8.43;5.25;;;;;;;20.63;85.24;99461.59;5064424;28;22184;-83
2022/09/03 01:52:42;;;;;;;11.00;6.15;;;;;;;20.67;85.72;99478.41;5065101;28;20044;-83
2022/09/03 01:55:13;;;;;;;11.88;6.03;;;;;;;20.78;85.22;99488.47;5059269;28;20404;-82
2022/09/03 01:57:47;;;;;;;11.40;7.68;;;;;;;20.66;85.31;99453.38;5049367;28;20111;-83
2022/09/03 02:00:19;;;;;;;13.43;6.75;;;;;;;20.66;85.39;99453.38;5054228;28;20036;-83
2022/09/03 02:02:47;;;;;;;7.65;5.88;;;;;;;20.77;85.27;99468.81;5059004;28;20032;-83
2022/09/03 02:05:23;;;;;;;10.38;5.43;;;;;;;20.87;84.62;99478.03;5066469;28;20064;-83
2022/09/03 02:08:00;;;;;;;10.88;6.45;;;;;;;20.60;85.31;99444.84;5067046;28;20032;-82
2022/09/03 02:10:52;;;;;;;11.10;7.53;;;;;;;20.85;85.15;99482.63;5056772;28;20041;-82
2022/09/03 02:13:22;;;;;;;24.50;5.95;;;;;;;20.63;85.54;99458.06;5053454;28;20838;-83
2022/09/03 02:15:51;;;;;;;9.35;5.35;;;;;;;20.73;85.21;99478.03;5065357;28;20583;-83
2022/09/03 02:18:25;;;;;;;9.35;5.25;;;;;;;20.62;85.12;99449.16;5066787;28;20041;-83
2022/09/03 02:20:54;;;;;;;8.52;4.90;;;;;;;20.68;84.81;99466.69;5049962;28;20040;-83
2022/09/03 02:23:22;;;;;;;9.57;7.05;;;;;;;20.63;85.36;99468.78;5066325;28;20414;-82
2022/09/03 02:25:51;;;;;;;9.90;5.50;;;;;;;20.77;85.29;99478.69;5066007;28;20040;-83
2022/09/03 02:28:17;;;;;;;8.60;5.13;;;;;;;20.71;85.31;99486.16;5066652;28;20031;-83
2022/09/03 02:30:43;;;;;;;9.63;5.70;;;;;;;20.50;85.69;99458.78;5050717;28;20041;-83
2022/09/03 02:33:09;;;;;;;10.25;5.60;;;;;;;20.65;84.74;99472.25;5045590;28;20414;-83
2022/09/03 02:35:35;;;;;;;9.82;5.57;;;;;;;20.69;84.48;99503.28;5047151;28;20039;-82
2022/09/03 02:38:16;;;;;;;11.05;6.88;;;;;;;20.62;85.25;99493.84;5046374;28;20037;-84
2022/09/03 02:40:43;;;;;;;7.13;4.88;;;;;;;20.67;85.74;99510.56;5046268;28;20037;-83
2022/09/03 02:43:16;;;;;;;11.07;5.78;;;;;;;20.60;85.31;99480.53;5046383;28;20040;-83
2022/09/03 02:45:46;;;;;;;10.05;5.53;;;;;;;20.69;85.30;99489.88;5060223;28;20036;-84
2022/09/03 02:48:16;;;;;;;9.88;4.63;;;;;;;20.69;85.50;99496.09;5070397;28;20040;-83
2022/09/03 02:50:42;;;;;;;6.07;4.55;;;;;;;20.90;84.54;99517.22;5058490;28;20089;-84
2022/09/03 02:53:08;;;;;;;10.38;5.45;;;;;;;20.77;84.24;99486.72;5070395;28;20127;-83
2022/09/03 02:55:34;;;;;;;10.52;5.63;;;;;;;20.79;84.39;99493.72;5068348;28;20053;-83
2022/09/03 02:58:00;;;;;;;9.60;5.47;;;;;;;20.84;83.87;99507.72;5061883;28;20566;-83
2022/09/03 03:00:27;;;;;;;8.60;5.05;;;;;;;20.71;83.83;99482.59;5060202;28;20033;-84
2022/09/03 03:02:54;;;;;;;7.55;4.95;;;;;;;20.90;83.75;99504.66;5065440;28;20044;-83
2022/09/03 03:05:28;;;;;;;8.63;5.00;;;;;;;20.90;83.03;99509.16;5050054;28;20119;-84
2022/09/03 03:07:55;;;;;;;9.18;5.50;;;;;;;20.71;83.34;99477.22;5048391;28;20426;-84
2022/09/03 03:10:20;;;;;;;10.45;6.20;;;;;;;20.81;83.06;99501.69;5058880;28;20032;-84
2022/09/03 03:12:46;;;;;;;7.45;4.88;;;;;;;20.52;82.99;99461.38;5065303;28;20033;-84
2022/09/03 03:15:11;;;;;;;7.75;5.18;;;;;;;20.75;82.98;99502.91;5049820;28;20057;-84
2022/09/03 03:17:37;;;;;;;9.05;5.10;;;;;;;20.57;83.24;99489.63;5067601;28;20048;-82
2022/09/03 03:20:03;;;;;;;8.95;5.45;;;;;;;20.50;83.13;99466.81;5069164;28;20465;-82
2022/09/03 03:22:28;;;;;;;8.88;5.50;;;;;;;20.61;83.37;99497.47;5067839;28;20043;-82
2022/09/03 03:24:55;;;;;;;7.57;5.05;;;;;;;20.42;83.50;99482.50;5049600;28;20033;-82
2022/09/03 03:27:21;;;;;;;9.27;5.15;;;;;;;20.57;83.06;99486.06;5049800;28;20108;-82
2022/09/03 03:29:46;;;;;;;9.57;5.18;;;;;;;20.66;82.96;99490.06;5049691;28;20925;-82
2022/09/03 03:32:12;;;;;;;9.63;5.38;;;;;;;20.43;82.84;99457.41;5049649;28;20079;-82
2022/09/03 03:34:38;;;;;;;8.48;5.20;;;;;;;20.58;82.95;99490.47;5068211;28;20036;-83
2022/09/03 03:37:04;;;;;;;9.30;7.03;;;;;;;20.45;83.52;99485.00;5052332;28;20037;-83
2022/09/03 03:39:30;;;;;;;8.20;5.40;;;;;;;20.45;83.89;99501.06;5049191;28;20036;-83
2022/09/03 03:41:55;;;;;;;7.95;4.78;;;;;;;20.38;83.64;99489.00;5049330;28;20116;-82
2022/09/03 03:44:21;;;;;;;9.07;5.75;;;;;;;20.40;83.11;99479.03;5065258;28;20032;-83
2022/09/03 03:46:46;;;;;;;8.60;5.22;;;;;;;20.25;83.53;99466.53;5068964;28;20494;-83
2022/09/03 03:49:12;;;;;;;9.30;5.25;;;;;;;20.46;83.29;99493.88;5069148;28;20021;-82
2022/09/03 03:51:38;;;;;;;12.23;4.97;;;;;;;20.40;83.79;99489.75;5066671;28;20391;-82
2022/09/03 03:54:04;;;;;;;8.90;5.13;;;;;;;20.33;83.75;99480.38;5055412;28;20116;-84
2022/09/03 03:56:29;;;;;;;9.50;6.35;;;;;;;20.35;83.16;99475.78;5050265;28;20147;-82
2022/09/03 03:58:56;;;;;;;7.70;4.63;;;;;;;20.16;83.77;99466.13;5048534;28;20128;-83
2022/09/03 04:01:23;;;;;;;10.43;6.18;;;;;;;20.25;83.89;99502.25;5062751;28;20036;-83
2022/09/03 04:03:49;;;;;;;10.68;5.63;;;;;;;20.11;84.21;99505.72;5069117;28;20028;-83
2022/09/03 04:06:17;;;;;;;13.90;7.28;;;;;;;20.04;84.31;99483.75;5066404;28;20044;-83
2022/09/03 04:08:45;;;;;;;8.77;5.50;;;;;;;20.15;84.01;99464.41;5068804;28;20037;-83
2022/09/03 04:11:15;;;;;;;12.77;6.30;;;;;;;19.93;84.07;99435.34;5067017;28;20041;-83
2022/09/03 04:13:42;;;;;;;12.43;7.28;;;;;;;20.29;84.72;99508.28;5067161;28;20036;-82
2022/09/03 04:16:10;;;;;;;13.63;8.43;;;;;;;20.42;84.34;99506.63;5067118;28;20042;-83
2022/09/03 04:18:37;;;;;;;13.85;7.78;;;;;;;20.44;83.90;99493.13;5068253;28;20036;-83
2022/09/03 04:21:11;;;;;;;11.70;7.65;;;;;;;20.51;83.83;99510.53;5067942;28;20036;-83
2022/09/03 04:23:39;;;;;;;18.65;8.20;;;;;;;20.49;83.56;99507.97;5057908;28;20048;-82
2022/09/03 04:26:06;;;;;;;10.00;7.05;;;;;;;20.43;84.33;99528.91;5060386;28;20044;-82
2022/09/03 04:28:32;;;;;;;11.57;6.60;;;;;;;20.35;84.01;99494.53;5048302;28;20029;-82
2022/09/03 04:31:05;;;;;;;9.70;6.88;;;;;;;20.42;83.71;99519.13;5048002;28;20112;-83
2022/09/03 04:33:32;;;;;;;9.30;5.82;;;;;;;20.12;85.16;99493.19;5048310;28;20499;-83
2022/09/03 04:36:10;;;;;;;9.73;5.22;;;;;;;19.94;87.72;99503.13;5058381;28;20037;-83
2022/09/03 04:38:38;;;;;;;9.57;6.53;;;;;;;19.84;88.71;99492.94;5061425;28;20071;-82
2022/09/03 04:41:10;;;;;;;10.52;6.00;;;;;;;19.36;90.90;99499.19;5068034;28;20399;-82
2022/09/03 04:43:35;;;;;;;11.82;7.00;;;;;;;19.59;92.18;99520.19;5062797;28;20511;-83
2022/09/03 04:46:04;;;;;;;8.90;5.13;;;;;;;19.48;92.83;99518.09;5048055;28;20125;-81
2022/09/03 04:48:31;;;;;;;11.55;6.10;;;;;;;19.42;93.66;99521.09;5046529;28;20043;-81
2022/09/03 04:51:13;;;;;;;13.13;7.57;;;;;;;19.43;94.16;99527.31;5055513;28;20037;-82
2022/09/03 04:53:44;;;;;;;8.18;5.50;;;;;;;19.62;92.68;99521.81;5060423;28;20039;-82
2022/09/03 04:56:14;;;;;;;11.75;5.75;;;;;;;19.60;94.08;99553.13;5063666;28;20068;-82
2022/09/03 04:58:42;;;;;;;9.93;5.05;;;;;;;19.82;93.16;99535.00;5067785;28;20533;-83
2022/09/03 05:01:16;;;;;;;10.13;5.07;;;;;;;19.63;92.11;99521.75;5067163;28;20036;-83
2022/09/03 05:03:43;;;;;;;9.20;4.78;;;;;;;19.87;93.09;99549.94;5067821;28;20033;-84
2022/09/03 05:06:09;;;;;;;11.55;6.55;;;;;;;19.81;92.08;99543.97;5065868;28;20041;-83
2022/09/03 05:08:36;;;;;;;8.07;5.18;;;;;;;19.56;92.45;99514.13;5063691;28;20037;-82
2022/09/03 05:11:05;;;;;;;9.35;6.00;;;;;;;19.92;93.08;99561.25;5066018;28;20502;-81
2022/09/03 05:13:32;;;;;;;9.63;5.35;;;;;;;19.81;91.73;99535.06;5064254;28;20473;-80
2022/09/03 05:16:00;;;;;;;12.15;6.63;;;;;;;19.97;91.44;99530.59;5047559;28;20048;-81
2022/09/03 05:18:26;;;;;;;11.30;7.35;;;;;;;20.23;90.33;99533.59;5047938;28;20028;-82
2022/09/03 05:21:06;;;;;;;10.18;5.38;;;;;;;20.05;90.61;99538.19;5045977;28;20064;-82
2022/09/03 05:23:36;;;;;;;13.18;5.45;;;;;;;20.12;89.91;99539.56;5048735;28;20162;-84
2022/09/03 05:26:07;;;;;;;8.63;5.30;;;;;;;20.17;89.74;99528.56;5051784;28;20410;-85
2022/09/03 05:28:36;;;;;;;9.70;6.38;;;;;;;20.67;88.69;99561.47;5057458;28;20044;-84
2022/09/03 05:31:11;;;;;;;11.13;5.55;;;;;;;20.48;89.20;99525.00;5066449;28;20052;-85
2022/09/03 05:33:39;;;;;;;11.10;4.28;;;;;;;20.66;87.54;99555.22;5066845;28;20028;-84
2022/09/03 05:36:07;;;;;;;7.15;4.13;;;;;;;20.77;87.10;99545.69;5066838;28;20491;-85
2022/09/03 05:38:33;;;;;;;7.88;4.50;;;;;;;20.72;86.75;99578.97;5064497;28;20189;-85
2022/09/03 05:41:00;;;;;;;7.47;4.80;;;;;;;20.60;87.34;99542.16;5061163;28;20527;-84
2022/09/03 05:43:29;;;;;;;8.68;4.43;;;;;;;20.92;87.18;99556.34;5045880;28;20041;-87
2022/09/03 05:46:00;;;;;;;9.98;4.78;;;;;;;21.15;85.50;99580.03;5045866;28;20064;-87
2022/09/03 05:48:27;;;;;;;5.95;4.13;;;;;;;20.85;83.94;99565.75;5061588;28;20131;-88
2022/09/03 05:51:00;;;;;;;8.73;4.78;;;;;;;20.91;85.72;99549.28;5050358;28;20479;-86
2022/09/03 05:53:27;;;;;;;11.95;5.40;;;;;;;21.39;84.00;99565.13;5060994;28;20841;-86
2022/09/03 05:56:00;;;;;;;8.48;4.85;;;;;;;21.40;83.57;99574.06;5047337;28;20033;-86
2022/09/03 05:58:43;;;;;;;11.95;4.10;;;;;;;21.33;81.88;99548.56;5045522;28;20039;-86
2022/09/03 06:01:14;;;;;;;8.63;4.53;;;;;;;21.19;83.25;99538.69;5047446;28;20025;-87
2022/09/03 06:03:41;;;;;;;11.20;5.20;;;;;;;21.61;82.41;99570.06;5061659;28;20525;-85
2022/09/03 06:06:07;;;;;;;5.47;2.95;;;;;;;21.71;80.75;99582.91;5061906;28;20040;-87
2022/09/03 06:08:34;;;;;;;9.70;3.70;;;;;;;22.06;80.37;99585.16;5065604;28;20044;-88
2022/09/03 06:11:02;;;;;;;7.70;3.63;;;;;;;22.11;78.19;99562.41;5064153;28;20169;-90
2022/09/03 06:13:28;;;;;;;5.80;3.83;;;;;;;22.27;77.10;99577.53;5065617;28;20028;-87
2022/09/03 06:16:01;;;;;;;7.68;4.55;;;;;;;22.53;77.83;99570.47;5075719;28;20114;-88
2022/09/03 06:18:28;;;;;;;7.95;3.78;;;;;;;22.98;75.05;99572.84;5062078;28;20032;-87
2022/09/03 06:20:58;;;;;;;5.95;3.88;;;;;;;23.06;73.57;99575.84;5057336;28;20521;-87
2022/09/03 06:23:24;;;;;;;8.55;3.58;;;;;;;23.57;73.13;99585.81;5062137;28;20029;-87
2022/09/03 06:26:19;;;;;;;5.13;2.40;;;;;;;23.97;71.13;99590.22;5065378;28;20032;-89
2022/09/03 06:28:47;;;;;;;8.75;3.97;;;;;;;24.00;69.89;99592.69;5056315;28;20425;-89
2022/09/03 06:31:18;;;;;;;6.90;3.25;;;;;;;23.86;69.05;99599.91;5070610;28;20039;-86
2022/09/03 06:33:44;;;;;;;8.07;5.00;;;;;;;23.64;69.72;99572.81;5069903;28;20063;-83
2022/09/03 06:36:15;;;;;;;5.22;3.72;;;;;;;23.49;69.63;99561.28;5069366;28;20543;-82
2022/09/03 06:38:42;;;;;;;6.35;3.53;;;;;;;23.64;68.23;99576.34;5051882;28;20044;-85
2022/09/03 06:41:10;;;;;;;4.75;2.72;;;;;;;23.76;68.53;99601.53;5068005;28;20041;-83
2022/09/03 06:43:38;;;;;;;5.70;3.15;;;;;;;23.81;69.05;99569.75;5069472;28;20486;-83
2022/09/03 06:46:05;;;;;;;7.95;4.45;;;;;;;24.22;69.62;99598.25;5069406;28;20048;-83
2022/09/03 06:48:32;;;;;;;5.20;2.85;;;;;;;24.32;65.91;99568.78;5069719;28;20032;-83
2022/09/03 06:51:07;;;;;;;5.13;2.75;;;;;;;24.58;64.82;99587.56;5070406;28;20043;-83
2022/09/03 06:53:35;;;;;;;5.50;3.22;;;;;;;24.65;65.49;99561.84;5066581;28;20491;-85
2022/09/03 06:56:07;;;;;;;6.22;3.22;;;;;;;25.01;65.92;99578.91;5058999;28;20045;-83
2022/09/03 06:58:54;;;;;;;5.35;2.88;;;;;;;24.80;62.88;99587.66;5063325;28;20028;-84
2022/09/03 07:01:26;;;;;;;5.57;3.42;;;;;;;24.62;63.86;99554.88;5082888;28;20048;-85
2022/09/03 07:03:57;;;;;;;5.47;3.42;;;;;;;24.72;64.60;99563.13;5063204;28;20040;-82
2022/09/03 07:06:27;;;;;;;5.97;3.60;;;;;;;24.60;66.17;99562.19;5068149;28;20025;-84
2022/09/03 07:08:53;;;;;;;6.10;3.30;;;;;;;24.66;65.18;99586.00;5067593;28;20036;-84
2022/09/03 07:11:22;;;;;;;5.97;3.00;;;;;;;24.63;64.00;99570.06;5068053;28;20036;-84
2022/09/03 07:13:50;;;;;;;5.97;3.15;;;;;;;24.46;65.83;99581.22;5068422;28;20077;-82
2022/09/03 07:16:20;;;;;;;7.00;3.05;;;;;;;24.60;64.47;99594.56;5067199;28;20040;-82
2022/09/03 07:18:47;;;;;;;12.43;5.50;;;;;;;24.56;63.52;99608.34;5069120;28;20056;-82
2022/09/03 07:21:21;;;;;;;6.05;4.07;;;;;;;24.41;65.21;99591.50;5068400;28;20036;-82
2022/09/03 07:23:47;;;;;;;6.50;4.03;;;;;;;24.49;64.39;99575.59;5063444;28;20036;-82
2022/09/03 07:26:18;;;;;;;5.47;3.10;;;;;;;25.10;62.30;99604.31;5065470;28;20039;-81
2022/09/03 07:28:45;;;;;;;8.25;3.05;;;;;;;25.01;62.30;99609.44;5064696;28;20024;-81
2022/09/03 07:31:14;;;;;;;5.50;2.42;;;;;;;24.94;63.63;99548.81;5068956;28;20059;-84
2022/09/03 07:33:41;;;;;;;7.80;4.28;;;;;;;25.84;63.31;99599.44;5056295;28;20040;-81
2022/09/03 07:36:09;;;;;;;5.30;3.35;;;;;;;26.09;62.05;99571.31;5068584;28;20036;-80
2022/09/03 07:38:35;;;;;;;5.05;3.20;;;;;;;26.17;58.96;99613.91;5069853;28;20120;-81
2022/09/03 07:41:04;;;;;;;5.57;2.80;;;;;;;26.24;59.73;99595.34;5069233;28;20086;-81
2022/09/03 07:43:39;;;;;;;8.30;4.65;;;;;;;26.31;60.30;99580.34;5067121;28;20033;-80
2022/09/03 07:46:06;;;;;;;7.28;3.55;;;;;;;26.31;58.98;99601.13;5068106;28;20032;-80
2022/09/03 07:48:32;;;;;;;6.88;2.70;;;;;;;26.18;56.43;99574.22;5068959;28;20032;-84
2022/09/03 07:51:00;;;;;;;6.05;3.45;;;;;;;26.08;59.28;99601.16;5063950;28;20028;-80
2022/09/03 07:53:27;;;;;;;4.63;2.85;;;;;;;26.08;58.16;99596.59;5068373;28;20036;-81
2022/09/03 07:55:53;;;;;;;3.33;2.33;;;;;;;25.99;57.27;99601.91;5066699;28;20032;-81
2022/09/03 07:58:23;;;;;;;6.35;3.15;;;;;;;25.70;60.16;99565.41;5066724;28;20036;-81
2022/09/03 08:00:49;;;;;;;4.30;2.97;;;;;;;25.97;60.65;99591.19;5066792;28;20643;-81
2022/09/03 08:03:15;;;;;;;6.20;3.33;;;;;;;26.36;58.99;99604.31;5055724;28;20098;-80
2022/09/03 08:05:41;;;;;;;5.60;4.05;;;;;;;26.52;58.03;99591.22;5055888;28;20024;-81
2022/09/03 08:08:07;;;;;;;6.97;3.20;;;;;;;26.31;57.18;99587.59;5065523;28;20487;-83
2022/09/03 08:10:37;;;;;;;5.18;2.95;;;;;;;26.27;56.80;99587.88;5067618;28;20141;-81
2022/09/03 08:13:06;;;;;;;4.95;2.20;;;;;;;26.39;57.84;99574.31;5068706;28;20793;-82
2022/09/03 08:15:33;;;;;;;4.40;2.25;;;;;;;26.62;58.42;99556.16;5067316;28;20059;-82
2022/09/03 08:17:59;;;;;;;5.05;2.75;;;;;;;26.60;55.98;99567.09;5068180;28;20742;-82
2022/09/03 08:20:25;;;;;;;18.33;7.18;;;;;;;26.91;56.09;99590.72;5066336;28;20481;-82
2022/09/03 08:22:51;;;;;;;4.55;2.65;;;;;;;26.63;54.43;99569.56;5068010;28;20043;-84
2022/09/03 08:25:16;;;;;;;6.28;3.30;;;;;;;26.71;55.49;99578.88;5067487;28;20481;-82
2022/09/03 08:27:42;;;;;;;6.90;3.60;;;;;;;26.84;55.58;99582.28;5068814;28;20407;-83
2022/09/03 08:30:10;;;;;;;4.85;2.85;;;;;;;27.21;55.15;99586.41;5067464;28;20040;-84
2022/09/03 08:32:39;;;;;;;6.28;3.15;;;;;;;27.45;55.69;99575.28;5068362;28;20046;-83
2022/09/03 08:35:06;;;;;;;7.03;2.95;;;;;;;26.96;55.08;99573.13;5067310;28;20039;-82
2022/09/03 08:37:31;;;;;;;5.88;3.72;;;;;;;26.88;54.15;99564.81;5067807;28;20858;-82
2022/09/03 08:39:59;;;;;;;8.05;4.28;;;;;;;27.03;55.93;99572.59;5068541;28;20024;-83
2022/09/03 08:43:04;;;;;;;39.50;21.33;;;;;;;27.14;55.97;99561.69;5067996;28;20029;-84
2022/09/03 08:45:32;;;;;;;7.60;5.32;;;;;;;27.37;55.33;99584.09;5067047;28;20036;-81
2022/09/03 08:48:09;;;;;;;6.00;2.72;;;;;;;26.91;56.09;99555.53;5068063;28;20046;-82
2022/09/03 08:50:50;;;;;;;45.65;23.70;;;;;;;27.18;54.62;99579.38;5066519;28;20032;-83
2022/09/03 08:53:35;;;;;;;14.70;9.77;;;;;;;26.69;53.40;99545.69;5068267;28;20056;-83
2022/09/03 08:56:07;;;;;;;;;;;;;;;27.18;53.58;99584.81;5068225;28;20040;-83
2022/09/03 08:58:37;;;;;;;5.60;3.20;;;;;;;27.40;54.90;99572.13;5068158;28;19917;-82
2022/09/03 09:01:14;;;;;;;53.30;24.52;;;;;;;27.43;55.10;99588.13;5068022;28;20027;-82
2022/09/03 09:03:56;;;;;;;24.40;12.98;;;;;;;27.43;53.40;99574.59;5068037;28;20036;-82
2022/09/03 09:06:43;;;;;;;7.53;4.97;;;;;;;27.52;51.11;99561.06;5067565;28;20028;-82
2022/09/03 09:09:32;;;;;;;29.23;18.45;;;;;;;27.52;53.68;99543.97;5067832;28;20522;-83
2022/09/03 09:12:16;;;;;;;36.45;23.38;;;;;;;28.34;52.22;99561.94;5067767;28;20045;-83
2022/09/03 09:14:54;;;;;;;7.68;4.50;;;;;;;28.25;51.44;99568.19;5066180;28;20491;-82
2022/09/03 09:17:29;;;;;;;4.57;2.88;;;;;;;28.21;52.61;99569.50;5066113;28;20134;-82
2022/09/03 09:20:10;;;;;;;7.10;3.85;;;;;;;27.79;51.16;99575.91;5066800;28;20874;-83
2022/09/03 09:22:54;;;;;;;5.97;2.83;;;;;;;27.51;51.65;99559.38;5066770;28;20119;-83
2022/09/03 09:25:23;;;;;;;4.95;3.28;;;;;;;27.57;51.13;99530.03;5067372;28;20153;-84
2022/09/03 09:28:02;;;;;;;6.00;3.13;;;;;;;27.87;52.50;99572.50;5067461;28;20032;-81
2022/09/03 09:30:30;;;;;;;5.40;3.70;;;;;;;27.86;52.07;99559.94;5067193;28;20028;-84
2022/09/03 09:32:56;;;;;;;4.88;3.10;;;;;;;28.06;50.41;99543.78;5067064;28;20033;-81
2022/09/03 09:35:22;;;;;;;5.32;2.75;;;;;;;27.72;50.51;99544.06;5066721;28;20486;-84
2022/09/03 09:37:53;;;;;;;5.22;2.85;;;;;;;27.68;51.99;99529.91;5065715;28;20034;-82
2022/09/03 09:40:44;;;;;;;7.28;3.67;;;;;;;27.84;51.21;99565.50;5067192;28;20115;-83
2022/09/03 09:43:15;;;;;;;6.07;3.08;;;;;;;27.34;52.04;99505.81;5061440;28;20044;-82
2022/09/03 09:45:44;;;;;;;4.68;3.05;;;;;;;27.42;54.04;99535.81;5064869;28;20036;-84
2022/09/03 09:48:33;;;;;;;6.20;3.42;;;;;;;27.72;50.46;99555.75;5065997;28;20166;-86
2022/09/03 09:51:17;;;;;;;5.28;3.22;;;;;;;27.68;50.60;99528.09;5064838;28;20032;-84
2022/09/03 09:53:43;;;;;;;6.20;3.20;;;;;;;27.46;48.81;99512.88;5061225;28;20136;-83
2022/09/03 09:56:21;;;;;;;6.82;4.18;;;;;;;27.33;50.02;99491.44;5064319;28;20772;-84
2022/09/03 09:58:47;;;;;;;6.38;3.97;;;;;;;27.93;49.57;99528.59;5064085;28;20563;-85
2022/09/03 10:01:25;;;;;;;5.75;3.10;;;;;;;27.77;50.46;99503.88;5062511;28;20028;-84
2022/09/03 10:03:56;;;;;;;5.57;3.42;;;;;;;27.47;47.88;99497.50;5064942;28;20058;-83
2022/09/03 10:09:14;;;;;;;5.18;2.97;;;;;;;27.41;50.63;99484.50;5065558;28;20078;-84
2022/09/03 10:11:43;;;;;;;6.63;3.85;;;;;;;27.87;50.98;99516.44;5066598;28;20822;-82
2022/09/03 10:14:20;;;;;;;9.40;3.25;;;;;;;28.04;48.02;99533.91;5066700;28;20119;-82
2022/09/03 10:16:59;;;;;;;4.53;3.03;;;;;;;27.89;50.66;99472.94;5066733;28;20486;-84
2022/09/03 10:19:38;;;;;;;5.90;3.70;;;;;;;28.10;48.88;99482.84;5065376;28;20418;-84
2022/09/03 10:22:16;;;;;;;3.58;1.95;;;;;;;27.99;49.52;99489.25;5067050;28;20039;-82
2022/09/03 10:24:58;;;;;;;4.63;2.65;;;;;;;27.82;48.83;99488.91;5066988;28;20516;-83
2022/09/03 10:27:25;;;;;;;4.45;2.45;;;;;;;28.14;49.28;99478.88;5066851;28;20547;-83
2022/09/03 10:29:52;;;;;;;6.13;4.03;;;;;;;28.62;47.99;99528.72;5067323;28;20415;-85
2022/09/03 10:32:35;;;;;;;5.05;3.20;;;;;;;28.77;49.63;99532.72;5066040;28;20067;-82
2022/09/03 10:35:09;;;;;;;4.85;2.67;;;;;;;28.48;46.81;99527.28;5067078;28;20119;-82
2022/09/03 10:37:46;;;;;;;4.90;2.53;;;;;;;28.65;46.77;99499.44;5067010;28;20067;-83
2022/09/03 10:40:38;;;;;;;6.32;3.25;;;;;;;28.71;46.67;99526.00;5066776;28;20032;-82
2022/09/03 10:43:31;;;;;;;5.00;2.78;;;;;;;28.81;47.20;99523.31;5064019;28;20090;-85
2022/09/03 10:46:04;;;;;;;5.85;2.78;;;;;;;28.34;49.44;99468.88;5067070;28;20025;-83
2022/09/03 10:48:37;;;;;;;4.20;2.33;;;;;;;29.00;48.59;99527.84;5067788;28;20540;-84
2022/09/03 10:51:22;;;;;;;6.13;3.08;;;;;;;28.73;47.61;99510.47;5068790;28;20032;-82
2022/09/03 10:54:10;;;;;;;5.30;2.97;;;;;;;28.44;46.71;99539.41;5082233;28;20055;-83
2022/09/03 10:56:51;;;;;;;5.45;2.78;;;;;;;28.37;48.46;99490.28;5066587;28;20025;-81
2022/09/03 10:59:57;;;;;;;6.72;3.65;;;;;;;28.65;49.21;99494.03;5064577;28;20040;-82
2022/09/03 11:02:25;;;;;;;7.72;3.55;;;;;;;28.88;46.33;99532.56;5065212;28;20041;-83
2022/09/03 11:05:08;;;;;;;4.70;2.83;;;;;;;28.58;47.80;99482.03;5065526;28;20036;-82
2022/09/03 11:07:43;;;;;;;4.32;2.35;;;;;;;29.07;46.91;99534.41;5081839;28;20072;-82
2022/09/03 11:10:21;;;;;;;;;;;;;;;;;;;;;
2022/09/03 11:13:19;;;;;;;7.32;3.15;;;;;;;28.66;47.89;99522.88;5069096;28;20038;-83
2022/09/03 11:15:48;;;;;;;4.80;2.88;;;;;;;28.54;46.09;99476.00;5065766;28;20792;-84
2022/09/03 11:18:28;;;;;;;7.03;3.47;;;;;;;28.57;48.82;99453.16;5068253;28;20159;-84
2022/09/03 11:20:59;;;;;;;5.30;2.47;;;;;;;28.92;49.85;99489.72;5068374;28;20067;-83
2022/09/03 11:23:28;;;;;;;5.75;2.63;;;;;;;29.12;48.12;99490.53;5069011;28;20052;-83
2022/09/03 11:25:57;;;;;;;7.00;2.88;;;;;;;29.08;47.14;99491.81;5069017;28;20028;-82
2022/09/03 11:28:34;;;;;;;6.60;2.90;;;;;;;29.67;48.50;99530.50;5053527;28;20419;-82
2022/09/03 11:31:17;;;;;;;4.45;2.58;;;;;;;29.26;47.93;99491.94;5049564;28;20094;-84
2022/09/03 11:34:00;;;;;;;5.05;2.80;;;;;;;28.70;48.86;99508.03;5049322;28;20083;-84
2022/09/03 11:36:35;;;;;;;5.63;3.17;;;;;;;28.77;49.64;99453.19;5049239;28;20491;-84
2022/09/03 11:39:12;;;;;;;5.65;3.08;;;;;;;29.13;46.89;99475.06;5048475;28;20111;-83
2022/09/03 11:41:38;;;;;;;5.43;2.95;;;;;;;29.03;47.03;99484.09;5049502;28;20285;-85
2022/09/03 11:44:17;;;;;;;4.88;3.13;;;;;;;29.00;48.37;99489.84;5049525;28;20035;-83
2022/09/03 11:46:54;;;;;;;5.65;3.60;;;;;;;29.16;49.01;99466.63;5060496;28;20115;-83
2022/09/03 11:49:28;;;;;;;4.50;3.03;;;;;;;29.39;49.32;99476.16;5057070;28;20033;-82
2022/09/03 11:52:00;;;;;;;7.30;4.32;;;;;;;29.45;46.51;99463.84;5064612;28;20032;-83
2022/09/03 11:54:26;;;;;;;9.90;3.40;;;;;;;29.26;47.11;99468.34;5067299;28;20037;-83
2022/09/03 11:57:15;;;;;;;4.72;2.65;;;;;;;29.65;46.23;99508.91;5066283;28;20032;-86
2022/09/03 11:59:42;;;;;;;5.22;3.33;;;;;;;29.65;47.20;99478.19;5066851;28;20103;-83
2022/09/03 12:02:23;;;;;;;4.20;2.42;;;;;;;29.67;45.03;99510.63;5061679;28;20542;-82